sensor_id;sensor_type;location;lat;lon;timestamp;P1;durP1;ratioP1;P2;durP2;ratioP2
46266;SDS011;31998;48.798;15.066;2023-04-22T00:01:32;3.50;;;3.30;;
46266;SDS011;31998;48.798;15.066;2023-04-22T00:03:58;6.30;;;3.17;;
46266;SDS011;31998;48.798;15.066;2023-04-22T00:06:23;4.57;;;3.00;;
46266;SDS011;31998;48.798;15.066;2023-04-22T00:08:48;7.57;;;3.20;;
46266;SDS011;31998;48.798;15.066;2023-04-22T00:11:13;4.00;;;2.80;;
46266;SDS011;31998;48.798;15.066;2023-04-22T00:13:39;3.43;;;2.73;;
46266;SDS011;31998;48.798;15.066;2023-04-22T00:16:04;23.33;;;3.17;;
46266;SDS011;31998;48.798;15.066;2023-04-22T00:18:29;31.27;;;3.33;;
46266;SDS011;31998;48.798;15.066;2023-04-22T00:20:54;7.70;;;3.50;;
46266;SDS011;31998;48.798;15.066;2023-04-22T00:23:20;4.23;;;3.40;;
46266;SDS011;31998;48.798;15.066;2023-04-22T00:25:45;4.43;;;3.67;;
46266;SDS011;31998;48.798;15.066;2023-04-22T00:28:10;3.83;;;3.50;;
46266;SDS011;31998;48.798;15.066;2023-04-22T00:30:35;4.93;;;4.23;;
46266;SDS011;31998;48.798;15.066;2023-04-22T00:33:00;5.10;;;3.70;;
46266;SDS011;31998;48.798;15.066;2023-04-22T00:35:26;5.93;;;3.10;;
46266;SDS011;31998;48.798;15.066;2023-04-22T00:37:51;3.90;;;3.50;;
46266;SDS011;31998;48.798;15.066;2023-04-22T00:40:16;4.13;;;3.50;;
46266;SDS011;31998;48.798;15.066;2023-04-22T00:42:42;4.10;;;3.90;;
46266;SDS011;31998;48.798;15.066;2023-04-22T00:45:10;7.20;;;4.47;;
46266;SDS011;31998;48.798;15.066;2023-04-22T00:47:36;10.37;;;4.03;;
46266;SDS011;31998;48.798;15.066;2023-04-22T00:50:02;7.70;;;3.80;;
46266;SDS011;31998;48.798;15.066;2023-04-22T00:52:27;4.50;;;4.30;;
46266;SDS011;31998;48.798;15.066;2023-04-22T00:54:52;4.13;;;3.93;;
46266;SDS011;31998;48.798;15.066;2023-04-22T00:57:18;3.83;;;3.63;;
46266;SDS011;31998;48.798;15.066;2023-04-22T00:59:43;3.43;;;3.23;;
46266;SDS011;31998;48.798;15.066;2023-04-22T01:02:09;3.67;;;3.37;;
46266;SDS011;31998;48.798;15.066;2023-04-22T01:04:34;3.00;;;2.83;;
46266;SDS011;31998;48.798;15.066;2023-04-22T01:07:00;4.23;;;3.80;;
46266;SDS011;31998;48.798;15.066;2023-04-22T01:09:25;2.73;;;2.60;;
46266;SDS011;31998;48.798;15.066;2023-04-22T01:11:51;6.33;;;2.80;;
46266;SDS011;31998;48.798;15.066;2023-04-22T01:14:16;2.80;;;2.70;;
46266;SDS011;31998;48.798;15.066;2023-04-22T01:16:41;3.20;;;3.00;;
46266;SDS011;31998;48.798;15.066;2023-04-22T01:19:07;4.63;;;4.20;;
46266;SDS011;31998;48.798;15.066;2023-04-22T01:21:33;4.10;;;3.07;;
46266;SDS011;31998;48.798;15.066;2023-04-22T01:23:59;11.43;;;2.80;;
46266;SDS011;31998;48.798;15.066;2023-04-22T01:26:25;3.10;;;3.00;;
46266;SDS011;31998;48.798;15.066;2023-04-22T01:28:50;3.43;;;3.23;;
46266;SDS011;31998;48.798;15.066;2023-04-22T01:31:15;2.90;;;2.80;;
46266;SDS011;31998;48.798;15.066;2023-04-22T01:33:41;3.43;;;3.20;;
46266;SDS011;31998;48.798;15.066;2023-04-22T01:36:06;10.07;;;3.80;;
46266;SDS011;31998;48.798;15.066;2023-04-22T01:38:31;4.73;;;3.57;;
46266;SDS011;31998;48.798;15.066;2023-04-22T01:40:59;395.37;;;15.30;;
46266;SDS011;31998;48.798;15.066;2023-04-22T01:43:25;4.77;;;4.37;;
46266;SDS011;31998;48.798;15.066;2023-04-22T01:45:50;6.97;;;3.50;;
46266;SDS011;31998;48.798;15.066;2023-04-22T01:48:15;8.13;;;3.70;;
46266;SDS011;31998;48.798;15.066;2023-04-22T01:50:41;210.50;;;10.23;;
46266;SDS011;31998;48.798;15.066;2023-04-22T01:53:06;4.10;;;3.70;;
46266;SDS011;31998;48.798;15.066;2023-04-22T01:55:31;3.30;;;3.00;;
46266;SDS011;31998;48.798;15.066;2023-04-22T01:57:59;4.60;;;3.97;;
46266;SDS011;31998;48.798;15.066;2023-04-22T02:00:25;4.27;;;3.97;;
46266;SDS011;31998;48.798;15.066;2023-04-22T02:02:50;5.27;;;4.27;;
46266;SDS011;31998;48.798;15.066;2023-04-22T02:05:16;2.60;;;2.50;;
46266;SDS011;31998;48.798;15.066;2023-04-22T02:07:41;4.90;;;4.33;;
46266;SDS011;31998;48.798;15.066;2023-04-22T02:10:06;7.03;;;3.60;;
46266;SDS011;31998;48.798;15.066;2023-04-22T02:12:33;49.80;;;4.67;;
46266;SDS011;31998;48.798;15.066;2023-04-22T02:14:58;10.83;;;5.87;;
46266;SDS011;31998;48.798;15.066;2023-04-22T02:17:23;363.77;;;14.57;;
46266;SDS011;31998;48.798;15.066;2023-04-22T02:19:49;4.13;;;2.60;;
46266;SDS011;31998;48.798;15.066;2023-04-22T02:22:14;3.60;;;3.30;;
46266;SDS011;31998;48.798;15.066;2023-04-22T02:24:40;4.00;;;3.73;;
46266;SDS011;31998;48.798;15.066;2023-04-22T02:27:05;4.47;;;3.83;;
46266;SDS011;31998;48.798;15.066;2023-04-22T02:29:32;3.87;;;3.57;;
46266;SDS011;31998;48.798;15.066;2023-04-22T02:31:58;4.37;;;3.37;;
46266;SDS011;31998;48.798;15.066;2023-04-22T02:34:24;21.93;;;6.70;;
46266;SDS011;31998;48.798;15.066;2023-04-22T02:36:49;3.63;;;3.43;;
46266;SDS011;31998;48.798;15.066;2023-04-22T02:39:14;3.37;;;3.17;;
46266;SDS011;31998;48.798;15.066;2023-04-22T02:41:39;4.50;;;3.10;;
46266;SDS011;31998;48.798;15.066;2023-04-22T02:44:04;4.40;;;4.10;;
46266;SDS011;31998;48.798;15.066;2023-04-22T02:46:30;3.57;;;3.37;;
46266;SDS011;31998;48.798;15.066;2023-04-22T02:48:55;3.60;;;3.40;;
46266;SDS011;31998;48.798;15.066;2023-04-22T02:51:21;5.83;;;3.33;;
46266;SDS011;31998;48.798;15.066;2023-04-22T02:53:46;5.70;;;3.60;;
46266;SDS011;31998;48.798;15.066;2023-04-22T02:56:11;3.13;;;3.03;;
46266;SDS011;31998;48.798;15.066;2023-04-22T02:58:37;145.90;;;9.07;;
46266;SDS011;31998;48.798;15.066;2023-04-22T03:01:02;21.00;;;4.77;;
46266;SDS011;31998;48.798;15.066;2023-04-22T03:03:27;114.20;;;5.90;;
46266;SDS011;31998;48.798;15.066;2023-04-22T03:05:53;115.17;;;6.50;;
46266;SDS011;31998;48.798;15.066;2023-04-22T03:08:18;11.27;;;4.40;;
46266;SDS011;31998;48.798;15.066;2023-04-22T03:10:43;4.10;;;3.90;;
46266;SDS011;31998;48.798;15.066;2023-04-22T03:13:09;3.57;;;3.40;;
46266;SDS011;31998;48.798;15.066;2023-04-22T03:15:34;3.53;;;3.30;;
46266;SDS011;31998;48.798;15.066;2023-04-22T03:17:59;11.10;;;4.00;;
46266;SDS011;31998;48.798;15.066;2023-04-22T03:20:24;3.73;;;3.53;;
46266;SDS011;31998;48.798;15.066;2023-04-22T03:22:50;18.80;;;3.30;;
46266;SDS011;31998;48.798;15.066;2023-04-22T03:25:15;4.67;;;2.83;;
46266;SDS011;31998;48.798;15.066;2023-04-22T03:27:40;3.10;;;3.00;;
46266;SDS011;31998;48.798;15.066;2023-04-22T03:30:05;3.97;;;3.73;;
46266;SDS011;31998;48.798;15.066;2023-04-22T03:32:31;3.73;;;3.43;;
46266;SDS011;31998;48.798;15.066;2023-04-22T03:34:56;4.23;;;3.87;;
46266;SDS011;31998;48.798;15.066;2023-04-22T03:37:21;5.27;;;3.60;;
46266;SDS011;31998;48.798;15.066;2023-04-22T03:39:47;5.17;;;3.37;;
46266;SDS011;31998;48.798;15.066;2023-04-22T03:42:12;7.83;;;3.53;;
46266;SDS011;31998;48.798;15.066;2023-04-22T03:44:38;5.07;;;4.40;;
46266;SDS011;31998;48.798;15.066;2023-04-22T03:47:03;4.43;;;4.23;;
46266;SDS011;31998;48.798;15.066;2023-04-22T03:49:28;3.23;;;3.13;;
46266;SDS011;31998;48.798;15.066;2023-04-22T03:51:53;16.93;;;4.50;;
46266;SDS011;31998;48.798;15.066;2023-04-22T03:54:19;4.73;;;3.70;;
46266;SDS011;31998;48.798;15.066;2023-04-22T03:56:44;61.10;;;5.20;;
46266;SDS011;31998;48.798;15.066;2023-04-22T03:59:10;7.67;;;3.53;;
46266;SDS011;31998;48.798;15.066;2023-04-22T04:01:35;28.23;;;3.77;;
46266;SDS011;31998;48.798;15.066;2023-04-22T04:04:00;13.27;;;3.97;;
46266;SDS011;31998;48.798;15.066;2023-04-22T04:06:26;40.07;;;4.00;;
46266;SDS011;31998;48.798;15.066;2023-04-22T04:08:52;4.03;;;3.80;;
46266;SDS011;31998;48.798;15.066;2023-04-22T04:11:17;3.53;;;3.40;;
46266;SDS011;31998;48.798;15.066;2023-04-22T04:13:42;6.20;;;3.87;;
46266;SDS011;31998;48.798;15.066;2023-04-22T04:16:07;35.73;;;4.00;;
46266;SDS011;31998;48.798;15.066;2023-04-22T04:18:32;3.60;;;3.50;;
46266;SDS011;31998;48.798;15.066;2023-04-22T04:20:58;88.57;;;7.67;;
46266;SDS011;31998;48.798;15.066;2023-04-22T04:23:23;82.80;;;4.00;;
46266;SDS011;31998;48.798;15.066;2023-04-22T04:25:48;60.80;;;4.20;;
46266;SDS011;31998;48.798;15.066;2023-04-22T04:28:13;2.90;;;2.80;;
46266;SDS011;31998;48.798;15.066;2023-04-22T04:30:39;6.93;;;4.90;;
46266;SDS011;31998;48.798;15.066;2023-04-22T04:33:05;11.80;;;3.90;;
46266;SDS011;31998;48.798;15.066;2023-04-22T04:35:32;8.37;;;3.73;;
46266;SDS011;31998;48.798;15.066;2023-04-22T04:37:58;3.93;;;3.73;;
46266;SDS011;31998;48.798;15.066;2023-04-22T04:40:24;6.97;;;4.30;;
46266;SDS011;31998;48.798;15.066;2023-04-22T04:42:49;3.97;;;3.77;;
46266;SDS011;31998;48.798;15.066;2023-04-22T04:45:17;4.10;;;3.93;;
46266;SDS011;31998;48.798;15.066;2023-04-22T04:47:43;4.50;;;4.10;;
46266;SDS011;31998;48.798;15.066;2023-04-22T04:50:09;8.43;;;4.80;;
46266;SDS011;31998;48.798;15.066;2023-04-22T04:52:34;3.77;;;3.47;;
46266;SDS011;31998;48.798;15.066;2023-04-22T04:54:59;4.13;;;4.00;;
46266;SDS011;31998;48.798;15.066;2023-04-22T04:57:24;3.70;;;3.60;;
46266;SDS011;31998;48.798;15.066;2023-04-22T04:59:50;3.97;;;3.67;;
46266;SDS011;31998;48.798;15.066;2023-04-22T05:02:15;4.33;;;4.03;;
46266;SDS011;31998;48.798;15.066;2023-04-22T05:04:40;5.03;;;4.60;;
46266;SDS011;31998;48.798;15.066;2023-04-22T05:07:05;4.90;;;4.33;;
46266;SDS011;31998;48.798;15.066;2023-04-22T05:09:31;4.77;;;4.47;;
46266;SDS011;31998;48.798;15.066;2023-04-22T05:12:01;3.47;;;3.37;;
46266;SDS011;31998;48.798;15.066;2023-04-22T05:14:26;4.27;;;3.87;;
46266;SDS011;31998;48.798;15.066;2023-04-22T05:16:51;4.10;;;3.90;;
46266;SDS011;31998;48.798;15.066;2023-04-22T05:19:16;5.40;;;5.00;;
46266;SDS011;31998;48.798;15.066;2023-04-22T05:21:41;6.00;;;5.37;;
46266;SDS011;31998;48.798;15.066;2023-04-22T05:24:07;10.53;;;6.60;;
46266;SDS011;31998;48.798;15.066;2023-04-22T05:26:32;15.83;;;11.23;;
46266;SDS011;31998;48.798;15.066;2023-04-22T05:28:57;14.10;;;9.80;;
46266;SDS011;31998;48.798;15.066;2023-04-22T05:31:23;19.93;;;13.47;;
46266;SDS011;31998;48.798;15.066;2023-04-22T05:33:48;16.80;;;13.00;;
46266;SDS011;31998;48.798;15.066;2023-04-22T05:36:13;15.23;;;12.70;;
46266;SDS011;31998;48.798;15.066;2023-04-22T05:38:39;22.53;;;14.57;;
46266;SDS011;31998;48.798;15.066;2023-04-22T05:41:04;14.00;;;12.20;;
46266;SDS011;31998;48.798;15.066;2023-04-22T05:43:29;20.10;;;13.67;;
46266;SDS011;31998;48.798;15.066;2023-04-22T05:45:55;27.20;;;15.80;;
46266;SDS011;31998;48.798;15.066;2023-04-22T05:48:20;19.20;;;15.00;;
46266;SDS011;31998;48.798;15.066;2023-04-22T05:50:45;17.73;;;15.37;;
46266;SDS011;31998;48.798;15.066;2023-04-22T05:53:10;29.83;;;16.60;;
46266;SDS011;31998;48.798;15.066;2023-04-22T05:55:36;21.33;;;14.70;;
46266;SDS011;31998;48.798;15.066;2023-04-22T05:58:01;20.10;;;14.10;;
46266;SDS011;31998;48.798;15.066;2023-04-22T06:00:26;19.57;;;14.43;;
46266;SDS011;31998;48.798;15.066;2023-04-22T06:02:51;31.30;;;13.20;;
46266;SDS011;31998;48.798;15.066;2023-04-22T06:05:16;21.37;;;13.27;;
46266;SDS011;31998;48.798;15.066;2023-04-22T06:07:42;15.10;;;12.23;;
46266;SDS011;31998;48.798;15.066;2023-04-22T06:10:07;15.70;;;13.63;;
46266;SDS011;31998;48.798;15.066;2023-04-22T06:12:32;20.73;;;13.47;;
46266;SDS011;31998;48.798;15.066;2023-04-22T06:14:58;15.43;;;10.77;;
46266;SDS011;31998;48.798;15.066;2023-04-22T06:17:23;14.30;;;12.47;;
46266;SDS011;31998;48.798;15.066;2023-04-22T06:19:49;16.87;;;11.87;;
46266;SDS011;31998;48.798;15.066;2023-04-22T06:22:14;14.87;;;13.23;;
46266;SDS011;31998;48.798;15.066;2023-04-22T06:24:39;17.67;;;13.53;;
46266;SDS011;31998;48.798;15.066;2023-04-22T06:27:04;15.80;;;12.80;;
46266;SDS011;31998;48.798;15.066;2023-04-22T06:29:29;13.30;;;11.60;;
46266;SDS011;31998;48.798;15.066;2023-04-22T06:31:55;15.07;;;11.30;;
46266;SDS011;31998;48.798;15.066;2023-04-22T06:34:20;16.03;;;11.33;;
46266;SDS011;31998;48.798;15.066;2023-04-22T06:36:45;12.27;;;11.07;;
46266;SDS011;31998;48.798;15.066;2023-04-22T06:39:10;15.07;;;10.33;;
46266;SDS011;31998;48.798;15.066;2023-04-22T06:41:36;15.40;;;11.70;;
46266;SDS011;31998;48.798;15.066;2023-04-22T06:44:01;13.23;;;10.13;;
46266;SDS011;31998;48.798;15.066;2023-04-22T06:46:26;11.30;;;10.20;;
46266;SDS011;31998;48.798;15.066;2023-04-22T06:48:52;14.73;;;11.40;;
46266;SDS011;31998;48.798;15.066;2023-04-22T06:51:17;17.87;;;11.50;;
46266;SDS011;31998;48.798;15.066;2023-04-22T06:53:42;15.30;;;10.60;;
46266;SDS011;31998;48.798;15.066;2023-04-22T06:56:07;16.53;;;10.47;;
46266;SDS011;31998;48.798;15.066;2023-04-22T06:58:33;14.90;;;11.27;;
46266;SDS011;31998;48.798;15.066;2023-04-22T07:00:58;14.70;;;10.03;;
46266;SDS011;31998;48.798;15.066;2023-04-22T07:03:23;19.83;;;10.87;;
46266;SDS011;31998;48.798;15.066;2023-04-22T07:05:48;12.67;;;11.07;;
46266;SDS011;31998;48.798;15.066;2023-04-22T07:08:14;12.73;;;11.43;;
46266;SDS011;31998;48.798;15.066;2023-04-22T07:10:39;15.60;;;11.40;;
46266;SDS011;31998;48.798;15.066;2023-04-22T07:13:04;19.30;;;12.13;;
46266;SDS011;31998;48.798;15.066;2023-04-22T07:15:30;22.40;;;11.63;;
46266;SDS011;31998;48.798;15.066;2023-04-22T07:17:55;14.47;;;11.70;;
46266;SDS011;31998;48.798;15.066;2023-04-22T07:20:20;15.17;;;11.30;;
46266;SDS011;31998;48.798;15.066;2023-04-22T07:22:45;23.27;;;11.27;;
46266;SDS011;31998;48.798;15.066;2023-04-22T07:25:10;15.53;;;11.07;;
46266;SDS011;31998;48.798;15.066;2023-04-22T07:27:36;11.27;;;9.67;;
46266;SDS011;31998;48.798;15.066;2023-04-22T07:30:02;13.10;;;9.30;;
46266;SDS011;31998;48.798;15.066;2023-04-22T07:32:27;15.13;;;8.73;;
46266;SDS011;31998;48.798;15.066;2023-04-22T07:34:52;12.47;;;8.03;;
46266;SDS011;31998;48.798;15.066;2023-04-22T07:37:18;11.37;;;9.50;;
46266;SDS011;31998;48.798;15.066;2023-04-22T07:39:43;22.50;;;7.80;;
46266;SDS011;31998;48.798;15.066;2023-04-22T07:42:08;8.53;;;7.73;;
46266;SDS011;31998;48.798;15.066;2023-04-22T07:44:33;9.93;;;7.20;;
46266;SDS011;31998;48.798;15.066;2023-04-22T07:46:58;12.63;;;8.67;;
46266;SDS011;31998;48.798;15.066;2023-04-22T07:49:24;21.43;;;8.70;;
46266;SDS011;31998;48.798;15.066;2023-04-22T07:51:49;8.33;;;7.60;;
46266;SDS011;31998;48.798;15.066;2023-04-22T07:54:15;19.23;;;9.37;;
46266;SDS011;31998;48.798;15.066;2023-04-22T07:56:40;11.10;;;8.33;;
46266;SDS011;31998;48.798;15.066;2023-04-22T07:59:05;8.47;;;7.63;;
46266;SDS011;31998;48.798;15.066;2023-04-22T08:01:31;9.70;;;8.07;;
46266;SDS011;31998;48.798;15.066;2023-04-22T08:03:56;11.87;;;7.33;;
46266;SDS011;31998;48.798;15.066;2023-04-22T08:06:21;12.50;;;7.77;;
46266;SDS011;31998;48.798;15.066;2023-04-22T08:08:46;15.87;;;7.53;;
46266;SDS011;31998;48.798;15.066;2023-04-22T08:11:12;14.20;;;7.53;;
46266;SDS011;31998;48.798;15.066;2023-04-22T08:13:37;12.93;;;7.27;;
46266;SDS011;31998;48.798;15.066;2023-04-22T08:16:02;13.77;;;7.47;;
46266;SDS011;31998;48.798;15.066;2023-04-22T08:18:28;10.50;;;7.20;;
46266;SDS011;31998;48.798;15.066;2023-04-22T08:20:53;6.93;;;6.33;;
46266;SDS011;31998;48.798;15.066;2023-04-22T08:23:18;12.80;;;6.10;;
46266;SDS011;31998;48.798;15.066;2023-04-22T08:25:43;9.83;;;7.23;;
46266;SDS011;31998;48.798;15.066;2023-04-22T08:28:08;8.73;;;6.10;;
46266;SDS011;31998;48.798;15.066;2023-04-22T08:30:34;9.80;;;6.33;;
46266;SDS011;31998;48.798;15.066;2023-04-22T08:33:00;13.03;;;7.50;;
46266;SDS011;31998;48.798;15.066;2023-04-22T08:35:25;8.57;;;6.73;;
46266;SDS011;31998;48.798;15.066;2023-04-22T08:37:50;9.63;;;5.63;;
46266;SDS011;31998;48.798;15.066;2023-04-22T08:40:16;7.07;;;6.20;;
46266;SDS011;31998;48.798;15.066;2023-04-22T08:42:42;6.07;;;5.67;;
46266;SDS011;31998;48.798;15.066;2023-04-22T08:45:07;10.50;;;5.87;;
46266;SDS011;31998;48.798;15.066;2023-04-22T08:47:33;18.03;;;6.20;;
46266;SDS011;31998;48.798;15.066;2023-04-22T08:50:00;12.27;;;7.00;;
46266;SDS011;31998;48.798;15.066;2023-04-22T08:52:26;11.10;;;5.63;;
46266;SDS011;31998;48.798;15.066;2023-04-22T08:54:51;8.57;;;5.30;;
46266;SDS011;31998;48.798;15.066;2023-04-22T08:57:16;9.23;;;4.90;;
46266;SDS011;31998;48.798;15.066;2023-04-22T08:59:42;9.80;;;4.77;;
46266;SDS011;31998;48.798;15.066;2023-04-22T09:02:10;8.40;;;4.60;;
46266;SDS011;31998;48.798;15.066;2023-04-22T09:04:37;10.70;;;4.60;;
46266;SDS011;31998;48.798;15.066;2023-04-22T09:07:04;6.10;;;4.20;;
46266;SDS011;31998;48.798;15.066;2023-04-22T09:09:30;8.20;;;4.00;;
46266;SDS011;31998;48.798;15.066;2023-04-22T09:11:56;13.73;;;6.07;;
46266;SDS011;31998;48.798;15.066;2023-04-22T09:14:22;5.57;;;4.57;;
46266;SDS011;31998;48.798;15.066;2023-04-22T09:16:48;4.43;;;3.60;;
46266;SDS011;31998;48.798;15.066;2023-04-22T09:19:13;7.30;;;4.17;;
46266;SDS011;31998;48.798;15.066;2023-04-22T09:21:39;4.60;;;4.30;;
46266;SDS011;31998;48.798;15.066;2023-04-22T09:24:09;6.17;;;3.90;;
46266;SDS011;31998;48.798;15.066;2023-04-22T09:26:37;4.53;;;4.23;;
46266;SDS011;31998;48.798;15.066;2023-04-22T09:29:03;5.07;;;3.60;;
46266;SDS011;31998;48.798;15.066;2023-04-22T09:31:33;8.03;;;4.10;;
46266;SDS011;31998;48.798;15.066;2023-04-22T09:33:59;5.00;;;4.70;;
46266;SDS011;31998;48.798;15.066;2023-04-22T09:36:25;6.23;;;3.97;;
46266;SDS011;31998;48.798;15.066;2023-04-22T09:39:12;3.67;;;3.57;;
46266;SDS011;31998;48.798;15.066;2023-04-22T09:41:37;4.03;;;3.80;;
46266;SDS011;31998;48.798;15.066;2023-04-22T09:44:03;4.57;;;3.80;;
46266;SDS011;31998;48.798;15.066;2023-04-22T09:46:29;3.50;;;3.30;;
46266;SDS011;31998;48.798;15.066;2023-04-22T09:48:55;3.73;;;3.47;;
46266;SDS011;31998;48.798;15.066;2023-04-22T09:51:21;4.07;;;3.73;;
46266;SDS011;31998;48.798;15.066;2023-04-22T09:56:50;3.80;;;3.50;;
46266;SDS011;31998;48.798;15.066;2023-04-22T09:59:22;6.93;;;4.47;;
46266;SDS011;31998;48.798;15.066;2023-04-22T10:01:52;4.07;;;3.73;;
46266;SDS011;31998;48.798;15.066;2023-04-22T10:04:17;11.90;;;3.37;;
46266;SDS011;31998;48.798;15.066;2023-04-22T10:06:45;4.83;;;4.33;;
46266;SDS011;31998;48.798;15.066;2023-04-22T10:09:11;4.00;;;3.57;;
46266;SDS011;31998;48.798;15.066;2023-04-22T10:11:37;4.57;;;4.17;;
46266;SDS011;31998;48.798;15.066;2023-04-22T10:14:02;4.13;;;3.60;;
46266;SDS011;31998;48.798;15.066;2023-04-22T10:16:29;11.87;;;4.27;;
46266;SDS011;31998;48.798;15.066;2023-04-22T10:18:56;4.00;;;3.77;;
46266;SDS011;31998;48.798;15.066;2023-04-22T10:21:23;7.90;;;4.17;;
46266;SDS011;31998;48.798;15.066;2023-04-22T10:23:48;4.03;;;3.40;;
46266;SDS011;31998;48.798;15.066;2023-04-22T10:28:58;6.80;;;4.03;;
46266;SDS011;31998;48.798;15.066;2023-04-22T10:31:23;4.60;;;4.20;;
46266;SDS011;31998;48.798;15.066;2023-04-22T10:33:49;7.43;;;4.20;;
46266;SDS011;31998;48.798;15.066;2023-04-22T10:38:40;4.53;;;3.70;;
46266;SDS011;31998;48.798;15.066;2023-04-22T10:41:12;9.23;;;4.67;;
46266;SDS011;31998;48.798;15.066;2023-04-22T10:43:45;5.33;;;4.07;;
46266;SDS011;31998;48.798;15.066;2023-04-22T10:48:55;5.30;;;3.57;;
46266;SDS011;31998;48.798;15.066;2023-04-22T10:54:04;4.03;;;3.83;;
46266;SDS011;31998;48.798;15.066;2023-04-22T10:56:29;6.80;;;4.40;;
46266;SDS011;31998;48.798;15.066;2023-04-22T10:58:55;3.80;;;3.60;;
46266;SDS011;31998;48.798;15.066;2023-04-22T11:01:20;3.67;;;3.37;;
46266;SDS011;31998;48.798;15.066;2023-04-22T11:03:45;7.23;;;4.10;;
46266;SDS011;31998;48.798;15.066;2023-04-22T11:06:17;4.93;;;3.77;;
46266;SDS011;31998;48.798;15.066;2023-04-22T11:08:46;6.57;;;4.30;;
46266;SDS011;31998;48.798;15.066;2023-04-22T11:11:12;5.17;;;4.60;;
46266;SDS011;31998;48.798;15.066;2023-04-22T11:13:40;5.00;;;4.50;;
46266;SDS011;31998;48.798;15.066;2023-04-22T11:16:07;4.13;;;3.93;;
46266;SDS011;31998;48.798;15.066;2023-04-22T11:18:33;5.80;;;4.60;;
46266;SDS011;31998;48.798;15.066;2023-04-22T11:21:02;19.57;;;5.90;;
46266;SDS011;31998;48.798;15.066;2023-04-22T11:23:29;4.83;;;4.33;;
46266;SDS011;31998;48.798;15.066;2023-04-22T11:26:01;5.27;;;3.80;;
46266;SDS011;31998;48.798;15.066;2023-04-22T11:28:26;6.80;;;4.10;;
46266;SDS011;31998;48.798;15.066;2023-04-22T11:30:52;7.27;;;4.17;;
46266;SDS011;31998;48.798;15.066;2023-04-22T11:33:17;7.17;;;4.80;;
46266;SDS011;31998;48.798;15.066;2023-04-22T11:35:43;5.83;;;4.53;;
46266;SDS011;31998;48.798;15.066;2023-04-22T11:38:08;8.80;;;4.60;;
46266;SDS011;31998;48.798;15.066;2023-04-22T11:40:35;10.60;;;3.60;;
46266;SDS011;31998;48.798;15.066;2023-04-22T11:43:01;4.50;;;4.20;;
46266;SDS011;31998;48.798;15.066;2023-04-22T11:45:28;4.23;;;3.93;;
46266;SDS011;31998;48.798;15.066;2023-04-22T11:47:53;4.07;;;3.70;;
46266;SDS011;31998;48.798;15.066;2023-04-22T11:50:26;3.97;;;3.60;;
46266;SDS011;31998;48.798;15.066;2023-04-22T11:52:52;3.73;;;3.43;;
46266;SDS011;31998;48.798;15.066;2023-04-22T11:55:28;9.83;;;4.73;;
46266;SDS011;31998;48.798;15.066;2023-04-22T11:58:39;4.60;;;4.30;;
46266;SDS011;31998;48.798;15.066;2023-04-22T12:00:46;11.47;;;5.57;;
46266;SDS011;31998;48.798;15.066;2023-04-22T12:08:02;4.50;;;3.90;;
46266;SDS011;31998;48.798;15.066;2023-04-22T12:10:28;5.27;;;3.90;;
46266;SDS011;31998;48.798;15.066;2023-04-22T12:12:54;47.83;;;20.47;;
46266;SDS011;31998;48.798;15.066;2023-04-22T12:15:19;5.07;;;4.50;;
46266;SDS011;31998;48.798;15.066;2023-04-22T12:17:44;9.17;;;5.70;;
46266;SDS011;31998;48.798;15.066;2023-04-22T12:20:10;6.37;;;3.57;;
46266;SDS011;31998;48.798;15.066;2023-04-22T12:22:36;27.47;;;11.10;;
46266;SDS011;31998;48.798;15.066;2023-04-22T12:25:02;7.37;;;4.80;;
46266;SDS011;31998;48.798;15.066;2023-04-22T12:27:28;7.50;;;4.00;;
46266;SDS011;31998;48.798;15.066;2023-04-22T12:29:54;9.67;;;3.43;;
46266;SDS011;31998;48.798;15.066;2023-04-22T12:32:19;5.63;;;3.80;;
46266;SDS011;31998;48.798;15.066;2023-04-22T12:34:45;7.57;;;4.07;;
46266;SDS011;31998;48.798;15.066;2023-04-22T12:37:10;4.60;;;4.20;;
46266;SDS011;31998;48.798;15.066;2023-04-22T12:39:36;8.90;;;4.83;;
46266;SDS011;31998;48.798;15.066;2023-04-22T12:42:01;4.90;;;3.97;;
46266;SDS011;31998;48.798;15.066;2023-04-22T12:44:27;3.60;;;3.40;;
46266;SDS011;31998;48.798;15.066;2023-04-22T12:46:52;5.07;;;4.30;;
46266;SDS011;31998;48.798;15.066;2023-04-22T12:49:17;4.67;;;4.13;;
46266;SDS011;31998;48.798;15.066;2023-04-22T12:51:43;4.60;;;4.20;;
46266;SDS011;31998;48.798;15.066;2023-04-22T12:54:08;4.50;;;4.20;;
46266;SDS011;31998;48.798;15.066;2023-04-22T12:56:34;7.13;;;4.57;;
46266;SDS011;31998;48.798;15.066;2023-04-22T12:59:00;7.13;;;4.10;;
46266;SDS011;31998;48.798;15.066;2023-04-22T13:01:27;4.00;;;3.70;;
46266;SDS011;31998;48.798;15.066;2023-04-22T13:03:52;7.90;;;3.33;;
46266;SDS011;31998;48.798;15.066;2023-04-22T13:06:17;5.90;;;3.97;;
46266;SDS011;31998;48.798;15.066;2023-04-22T13:08:42;4.90;;;3.80;;
46266;SDS011;31998;48.798;15.066;2023-04-22T13:11:08;7.03;;;3.80;;
46266;SDS011;31998;48.798;15.066;2023-04-22T13:13:33;8.93;;;4.07;;
46266;SDS011;31998;48.798;15.066;2023-04-22T13:15:58;3.47;;;3.30;;
46266;SDS011;31998;48.798;15.066;2023-04-22T13:18:23;3.40;;;3.10;;
46266;SDS011;31998;48.798;15.066;2023-04-22T13:20:49;4.10;;;3.50;;
46266;SDS011;31998;48.798;15.066;2023-04-22T13:23:15;5.33;;;3.80;;
46266;SDS011;31998;48.798;15.066;2023-04-22T13:25:41;12.90;;;3.90;;
46266;SDS011;31998;48.798;15.066;2023-04-22T13:28:06;3.60;;;3.30;;
46266;SDS011;31998;48.798;15.066;2023-04-22T13:30:31;4.10;;;3.80;;
46266;SDS011;31998;48.798;15.066;2023-04-22T13:32:57;3.20;;;3.10;;
46266;SDS011;31998;48.798;15.066;2023-04-22T13:35:22;6.70;;;3.40;;
46266;SDS011;31998;48.798;15.066;2023-04-22T13:37:48;3.87;;;3.57;;
46266;SDS011;31998;48.798;15.066;2023-04-22T13:40:13;3.70;;;2.90;;
46266;SDS011;31998;48.798;15.066;2023-04-22T13:42:39;4.83;;;3.83;;
46266;SDS011;31998;48.798;15.066;2023-04-22T13:45:04;5.73;;;3.07;;
46266;SDS011;31998;48.798;15.066;2023-04-22T13:47:30;2.70;;;2.60;;
46266;SDS011;31998;48.798;15.066;2023-04-22T13:49:55;4.70;;;3.37;;
46266;SDS011;31998;48.798;15.066;2023-04-22T13:52:21;3.10;;;2.80;;
46266;SDS011;31998;48.798;15.066;2023-04-22T13:54:46;3.20;;;3.00;;
46266;SDS011;31998;48.798;15.066;2023-04-22T13:57:12;8.37;;;3.17;;
46266;SDS011;31998;48.798;15.066;2023-04-22T13:59:37;5.97;;;2.67;;
46266;SDS011;31998;48.798;15.066;2023-04-22T14:02:02;3.33;;;3.13;;
46266;SDS011;31998;48.798;15.066;2023-04-22T14:04:27;4.17;;;3.27;;
46266;SDS011;31998;48.798;15.066;2023-04-22T14:06:53;6.17;;;2.90;;
46266;SDS011;31998;48.798;15.066;2023-04-22T14:09:18;3.00;;;2.90;;
46266;SDS011;31998;48.798;15.066;2023-04-22T14:11:43;2.77;;;2.67;;
46266;SDS011;31998;48.798;15.066;2023-04-22T14:14:09;4.53;;;2.20;;
46266;SDS011;31998;48.798;15.066;2023-04-22T14:16:35;2.20;;;1.90;;
46266;SDS011;31998;48.798;15.066;2023-04-22T14:19:00;3.27;;;3.00;;
46266;SDS011;31998;48.798;15.066;2023-04-22T14:21:26;5.90;;;2.50;;
46266;SDS011;31998;48.798;15.066;2023-04-22T14:23:52;4.43;;;2.73;;
46266;SDS011;31998;48.798;15.066;2023-04-22T14:26:17;3.00;;;2.73;;
46266;SDS011;31998;48.798;15.066;2023-04-22T14:28:43;2.60;;;2.50;;
46266;SDS011;31998;48.798;15.066;2023-04-22T14:31:08;3.10;;;2.60;;
46266;SDS011;31998;48.798;15.066;2023-04-22T14:33:33;2.57;;;2.43;;
46266;SDS011;31998;48.798;15.066;2023-04-22T14:35:58;2.83;;;2.63;;
46266;SDS011;31998;48.798;15.066;2023-04-22T14:38:24;3.70;;;2.47;;